createdAt,value
2023-03-23T15:57:55.132Z,71.10
2023-03-23T16:00:24.699Z,71.30
2023-03-23T16:02:59.608Z,71.10
2023-03-23T16:05:28.012Z,70.50
2023-03-23T16:07:55.847Z,70.50
2023-03-23T16:10:24.729Z,70.80
2023-03-23T16:12:52.666Z,70.90
2023-03-23T16:15:20.161Z,70.60
2023-03-23T16:17:47.301Z,71.00
2023-03-23T16:20:20.220Z,70.60
2023-03-23T16:22:48.884Z,70.60
2023-03-23T16:25:16.994Z,70.60
2023-03-23T16:27:44.248Z,70.90
2023-03-23T16:30:30.304Z,70.90
2023-03-23T16:32:57.951Z,71.10
2023-03-23T16:35:25.530Z,71.00
2023-03-23T16:38:07.449Z,71.40
2023-03-23T16:40:36.832Z,71.40
2023-03-23T16:43:08.909Z,71.70
2023-03-23T16:45:38.226Z,72.00
2023-03-23T16:48:06.196Z,72.00
2023-03-23T16:50:34.083Z,71.50
2023-03-23T16:53:01.240Z,71.50
2023-03-23T16:55:28.408Z,71.60
2023-03-23T16:58:05.426Z,71.60
2023-03-23T17:00:40.945Z,71.70
2023-03-23T17:03:08.340Z,71.40
2023-03-23T17:05:37.365Z,71.40
2023-03-23T17:08:04.716Z,71.60
2023-03-23T17:10:32.136Z,71.70
2023-03-23T17:12:59.332Z,71.50
2023-03-23T17:15:26.543Z,71.40
2023-03-23T17:17:55.277Z,71.70
2023-03-23T17:20:23.049Z,71.90
2023-03-23T17:22:50.588Z,72.50
2023-03-23T17:25:17.656Z,72.60
2023-03-23T17:27:44.830Z,73.40
2023-03-23T17:30:13.472Z,73.50
2023-03-23T17:32:40.608Z,73.70
2023-03-23T17:35:07.961Z,74.10
2023-03-23T17:37:36.260Z,74.30
2023-03-23T17:40:04.832Z,74.50
2023-03-23T17:42:31.823Z,74.80
2023-03-23T17:44:58.947Z,74.80
2023-03-23T17:47:26.058Z,74.40
2023-03-23T17:49:53.056Z,74.60
2023-03-23T17:52:20.109Z,74.70
2023-03-23T17:54:47.071Z,74.90
2023-03-23T17:57:14.225Z,74.80
2023-03-23T17:59:41.217Z,75.00
2023-03-23T18:02:08.817Z,74.90
2023-03-23T18:04:35.971Z,75.00
2023-03-23T18:07:03.067Z,75.10
2023-03-23T18:09:30.019Z,75.10
2023-03-23T18:11:57.246Z,75.20
2023-03-23T18:14:24.295Z,75.30
2023-03-23T18:16:53.192Z,75.30
2023-03-23T18:19:20.273Z,75.30
2023-03-23T18:21:47.379Z,75.20
2023-03-23T18:24:14.427Z,75.10
2023-03-23T18:26:41.719Z,74.90
2023-03-23T18:29:08.752Z,75.20
2023-03-23T18:31:40.072Z,75.20
2023-03-23T18:34:07.758Z,75.20
2023-03-23T18:36:35.008Z,75.50
2023-03-23T18:39:02.703Z,75.50
2023-03-23T18:41:29.700Z,75.50
2023-03-23T18:43:57.876Z,75.60
2023-03-23T18:46:25.510Z,75.30
2023-03-23T18:48:52.732Z,75.40
2023-03-23T18:51:19.733Z,75.30
2023-03-23T18:53:46.750Z,75.30
2023-03-23T18:56:16.661Z,75.20
2023-03-23T18:58:44.293Z,75.20
2023-03-23T19:01:14.341Z,75.20
2023-03-23T19:03:41.651Z,75.30
2023-03-23T19:06:15.450Z,75.60
2023-03-23T19:08:42.529Z,75.50
2023-03-23T19:11:12.842Z,75.60
2023-03-23T19:13:42.147Z,75.70
2023-03-23T19:16:14.551Z,75.90
2023-03-23T19:18:41.642Z,75.80
2023-03-23T19:21:14.562Z,75.80
2023-03-23T19:23:44.108Z,75.90
2023-03-23T19:26:21.823Z,76.50
2023-03-23T19:31:21.752Z,76.90
2023-03-23T19:33:49.446Z,77.10
2023-03-23T19:36:17.029Z,77.40
2023-03-23T19:38:44.211Z,77.40
2023-03-23T19:41:11.278Z,77.80
2023-03-23T19:43:38.750Z,78.10
2023-03-23T19:46:06.323Z,78.20
2023-03-23T19:48:33.778Z,78.40
2023-03-23T19:51:01.330Z,78.60
2023-03-23T19:53:28.304Z,78.70
2023-03-23T19:55:55.344Z,78.90
2023-03-23T19:58:22.786Z,79.00
2023-03-23T20:00:50.639Z,79.20
2023-03-23T20:03:18.045Z,79.60
2023-03-23T20:05:45.677Z,79.80
2023-03-23T20:08:14.779Z,80.00
2023-03-23T20:10:41.965Z,80.10
2023-03-23T20:13:11.642Z,80.40
2023-03-23T20:15:38.602Z,80.60
2023-03-23T20:18:07.371Z,80.70
2023-03-23T20:20:36.659Z,80.80
2023-03-23T20:23:04.501Z,81.10
2023-03-23T20:25:31.494Z,81.10
2023-03-23T20:27:58.634Z,81.30
2023-03-23T20:30:25.731Z,81.50
2023-03-23T20:32:56.372Z,81.50
2023-03-23T20:35:24.051Z,81.70
2023-03-23T20:37:52.725Z,81.90
2023-03-23T20:40:23.431Z,82.10
2023-03-23T20:42:52.799Z,82.20
2023-03-23T20:45:20.246Z,82.40
2023-03-23T20:47:47.411Z,82.60
2023-03-23T20:50:14.370Z,82.70
2023-03-23T20:52:41.759Z,82.90
2023-03-23T20:55:09.779Z,82.90
2023-03-23T20:57:38.376Z,82.90
2023-03-23T21:00:06.947Z,83.20
2023-03-23T21:02:34.681Z,83.30
2023-03-23T21:05:04.370Z,83.30
2023-03-23T21:07:31.609Z,83.30
2023-03-23T21:09:58.961Z,83.40
2023-03-23T21:12:26.364Z,83.40
2023-03-23T21:14:53.451Z,83.40
2023-03-23T21:17:21.168Z,83.50
2023-03-23T21:19:48.836Z,83.60
2023-03-23T21:22:18.914Z,83.60
2023-03-23T21:24:50.453Z,83.80
2023-03-23T21:27:18.210Z,83.80
2023-03-23T21:29:45.360Z,83.90
2023-03-23T21:32:12.422Z,84.00
2023-03-23T21:34:39.541Z,84.00
2023-03-23T21:37:06.700Z,84.10
2023-03-23T21:39:34.718Z,84.10
2023-03-23T21:42:04.364Z,84.20
2023-03-23T21:44:34.888Z,84.30
2023-03-23T21:47:02.370Z,84.30
2023-03-23T21:49:30.347Z,84.40
2023-03-23T21:51:57.669Z,84.30
2023-03-23T21:54:24.716Z,84.30
2023-03-23T21:56:52.337Z,84.50
2023-03-23T21:59:19.418Z,84.50
2023-03-23T22:01:48.029Z,84.60
2023-03-23T22:04:15.137Z,84.50
2023-03-23T22:06:42.540Z,84.60
2023-03-23T22:09:09.739Z,84.60
2023-03-23T22:11:38.569Z,84.70
2023-03-23T22:14:06.732Z,84.80
2023-03-23T22:16:34.148Z,84.80
2023-03-23T22:19:02.258Z,84.80
2023-03-23T22:21:29.976Z,84.80
2023-03-23T22:23:58.885Z,84.90
2023-03-23T22:26:30.000Z,84.90
2023-03-23T22:28:58.270Z,85.00
2023-03-23T22:31:28.784Z,85.10
2023-03-23T22:33:57.495Z,85.10
2023-03-23T22:36:26.476Z,85.20
2023-03-23T22:38:55.077Z,85.20
2023-03-23T22:41:27.511Z,85.30
2023-03-23T22:43:54.902Z,85.40
2023-03-23T22:46:22.172Z,85.40
2023-03-23T22:48:49.345Z,85.50
2023-03-23T22:51:18.038Z,85.50
2023-03-23T22:53:45.924Z,85.60
2023-03-23T22:56:12.989Z,85.60
2023-03-23T22:58:40.004Z,85.60
2023-03-23T23:01:14.476Z,85.50
2023-03-23T23:03:41.640Z,85.60
2023-03-23T23:06:10.372Z,85.60
2023-03-23T23:08:38.211Z,85.60
2023-03-23T23:11:06.583Z,85.60
2023-03-23T23:13:33.846Z,85.60
2023-03-23T23:16:02.366Z,85.60
2023-03-23T23:18:31.057Z,85.60
2023-03-23T23:21:00.669Z,85.60
2023-03-23T23:23:28.653Z,85.60
2023-03-23T23:25:56.496Z,85.70
2023-03-23T23:28:24.236Z,85.70
2023-03-23T23:30:51.820Z,85.70
2023-03-23T23:33:20.539Z,85.70
2023-03-23T23:35:48.189Z,85.70
2023-03-23T23:38:16.689Z,85.70
2023-03-23T23:40:45.388Z,85.70
2023-03-23T23:43:14.639Z,85.60
2023-03-23T23:45:41.933Z,85.60
2023-03-23T23:48:09.523Z,85.60
2023-03-23T23:50:36.639Z,85.50
2023-03-23T23:53:04.981Z,85.40
2023-03-23T23:55:32.140Z,85.40
2023-03-23T23:57:59.174Z,85.30
